Time;durP1;ratioP1;P1;durP2;ratioP2;P2;SDS_P1;SDS_P2;PMS_P1;PMS_P2;Temp;Humidity;BMP_temperature;BMP_pressure;BME280_temperature;BME280_humidity;BME280_pressure;Samples;Min_cycle;Max_cycle;Signal;HPM_P1;HPM_P2
2023/05/20 00:00:38;;;;;;;3.90;1.30;;;;;;;;;;5043321;28;20068;-64
2023/05/20 00:03:04;;;;;;;4.13;1.23;;;;;;;;;;5025425;28;20095;-64
2023/05/20 00:05:30;;;;;;;1.50;0.88;;;;;;;;;;5043076;28;20045;-64
2023/05/20 00:07:56;;;;;;;1.10;1.00;;;;;;;;;;5043785;28;20043;-64
2023/05/20 00:10:22;;;;;;;1.65;1.20;;;;;;;;;;5029106;28;20048;-64
2023/05/20 00:12:48;;;;;;;1.83;0.93;;;;;;;;;;5047139;28;20040;-64
2023/05/20 00:15:14;;;;;;;2.72;1.10;;;;;;;;;;5029872;28;20053;-64
2023/05/20 00:17:40;;;;;;;0.88;0.80;;;;;;;;;;5046959;28;20069;-64
2023/05/20 00:20:07;;;;;;;1.48;0.93;;;;;;;;;;5030692;28;20088;-64
2023/05/20 00:22:33;;;;;;;1.75;1.27;;;;;;;;;;5047632;28;20036;-64
2023/05/20 00:24:59;;;;;;;1.63;1.27;;;;;;;;;;5046470;28;20851;-64
2023/05/20 00:27:25;;;;;;;2.85;1.30;;;;;;;;;;5046957;28;20106;-64
2023/05/20 00:29:51;;;;;;;1.35;0.80;;;;;;;;;;5029015;28;20407;-64
2023/05/20 00:32:17;;;;;;;1.73;1.33;;;;;;;;;;5046429;28;20037;-64
2023/05/20 00:34:43;;;;;;;3.45;1.30;;;;;;;;;;5046918;28;20040;-64
2023/05/20 00:37:09;;;;;;;1.90;1.10;;;;;;;;;;5028858;28;20056;-64
2023/05/20 00:39:35;;;;;;;2.15;0.90;;;;;;;;;;5044314;28;20509;-64
2023/05/20 00:42:02;;;;;;;1.33;0.80;;;;;;;;;;5046999;28;20072;-64
2023/05/20 00:44:28;;;;;;;1.77;0.90;;;;;;;;;;5046013;28;20048;-64
2023/05/20 00:46:55;;;;;;;1.35;1.05;;;;;;;;;;5046347;28;20645;-64
2023/05/20 00:49:22;;;;;;;2.00;1.60;;;;;;;;;;5028340;28;20056;-64
2023/05/20 00:51:48;;;;;;;1.42;1.05;;;;;;;;;;5028923;28;20160;-64
2023/05/20 00:54:14;;;;;;;1.15;0.93;;;;;;;;;;5046853;28;20122;-64
2023/05/20 00:56:41;;;;;;;1.45;0.90;;;;;;;;;;5029632;28;20055;-64
2023/05/20 00:59:07;;;;;;;2.35;1.30;;;;;;;;;;5044182;28;20049;-64
2023/05/20 01:01:33;;;;;;;3.55;1.05;;;;;;;;;;5027675;28;20044;-64
2023/05/20 01:04:00;;;;;;;1.55;1.20;;;;;;;;;;5041362;28;20196;-64
2023/05/20 01:06:27;;;;;;;1.30;1.20;;;;;;;;;;5045748;28;20048;-64
2023/05/20 01:08:53;;;;;;;1.27;1.00;;;;;;;;;;5028685;28;20163;-64
2023/05/20 01:11:26;;;;;;;2.47;1.33;;;;;;;;;;5045869;28;20453;-64
2023/05/20 01:13:57;;;;;;;1.98;1.02;;;;;;;;;;5045517;28;20080;-64
2023/05/20 01:16:24;;;;;;;1.52;1.40;;;;;;;;;;5046202;28;20075;-64
2023/05/20 01:18:51;;;;;;;1.77;1.10;;;;;;;;;;5046512;28;20033;-64
2023/05/20 01:21:17;;;;;;;2.55;1.30;;;;;;;;;;5045615;28;20487;-64
2023/05/20 01:23:43;;;;;;;1.85;1.60;;;;;;;;;;5046807;28;20550;-64
2023/05/20 01:26:12;;;;;;;1.55;1.30;;;;;;;;;;5045897;28;20094;-63
2023/05/20 01:28:38;;;;;;;2.58;1.50;;;;;;;;;;5028367;28;20068;-64
2023/05/20 01:31:06;;;;;;;1.80;1.30;;;;;;;;;;5046123;28;20041;-64
2023/05/20 01:33:35;;;;;;;3.72;1.70;;;;;;;;;;5028922;28;20056;-64
2023/05/20 01:36:01;;;;;;;1.90;1.23;;;;;;;;;;5041150;28;20514;-64
2023/05/20 01:38:27;;;;;;;2.53;1.50;;;;;;;;;;5046668;28;20129;-64
2023/05/20 01:40:54;;;;;;;2.17;1.55;;;;;;;;;;5046068;28;20151;-64
2023/05/20 01:43:20;;;;;;;2.70;1.38;;;;;;;;;;5027236;28;20072;-64
2023/05/20 01:45:46;;;;;;;1.75;1.15;;;;;;;;;;5027149;28;20045;-64
2023/05/20 01:48:13;;;;;;;3.13;1.10;;;;;;;;;;5029570;28;20136;-64
2023/05/20 01:50:39;;;;;;;2.50;1.23;;;;;;;;;;5026700;28;20060;-64
2023/05/20 01:53:08;;;;;;;3.47;1.13;;;;;;;;;;5027875;28;20053;-64
2023/05/20 01:55:34;;;;;;;1.33;0.93;;;;;;;;;;5027229;28;20128;-64
2023/05/20 01:58:00;;;;;;;1.42;1.17;;;;;;;;;;5045538;28;20116;-64
2023/05/20 02:00:26;;;;;;;2.00;1.40;;;;;;;;;;5046496;28;20037;-64
2023/05/20 02:02:52;;;;;;;1.60;1.05;;;;;;;;;;5026496;28;20041;-64
2023/05/20 02:05:18;;;;;;;1.10;1.02;;;;;;;;;;5045629;28;20072;-63
2023/05/20 02:07:44;;;;;;;1.70;1.30;;;;;;;;;;5028067;28;20084;-64
2023/05/20 02:10:10;;;;;;;0.93;0.88;;;;;;;;;;5045523;28;20045;-64
2023/05/20 02:12:36;;;;;;;1.60;1.00;;;;;;;;;;5044915;28;20523;-64
2023/05/20 02:15:03;;;;;;;2.30;1.08;;;;;;;;;;5045317;28;20041;-64
2023/05/20 02:17:29;;;;;;;1.40;1.17;;;;;;;;;;5026609;28;20491;-64
2023/05/20 02:19:55;;;;;;;1.63;0.85;;;;;;;;;;5027348;28;20052;-64
2023/05/20 02:22:21;;;;;;;1.52;1.00;;;;;;;;;;5024939;28;20048;-64
2023/05/20 02:24:47;;;;;;;1.30;1.00;;;;;;;;;;5025864;28;20048;-64
2023/05/20 02:27:13;;;;;;;1.83;1.30;;;;;;;;;;5045162;28;20053;-64
2023/05/20 02:29:39;;;;;;;1.05;0.95;;;;;;;;;;5044410;28;20041;-64
2023/05/20 02:32:05;;;;;;;1.02;0.93;;;;;;;;;;5043390;28;20049;-64
2023/05/20 02:34:31;;;;;;;1.35;1.17;;;;;;;;;;5026692;28;20088;-64
2023/05/20 02:36:57;;;;;;;2.35;0.98;;;;;;;;;;5026912;28;20040;-64
2023/05/20 02:39:23;;;;;;;1.50;0.90;;;;;;;;;;5044156;28;20067;-64
2023/05/20 02:41:49;;;;;;;1.00;0.85;;;;;;;;;;5044608;28;20049;-64
2023/05/20 02:44:15;;;;;;;1.63;0.98;;;;;;;;;;5027206;28;20119;-64
2023/05/20 02:46:42;;;;;;;1.67;1.00;;;;;;;;;;5026378;28;20053;-64
2023/05/20 02:49:08;;;;;;;1.25;1.00;;;;;;;;;;5044459;28;20049;-64
2023/05/20 02:51:34;;;;;;;0.80;0.80;;;;;;;;;;5043228;28;20098;-64
2023/05/20 02:54:00;;;;;;;1.10;0.90;;;;;;;;;;5044102;28;20559;-64
2023/05/20 02:56:27;;;;;;;1.33;0.80;;;;;;;;;;5026093;28;20492;-64
2023/05/20 02:58:53;;;;;;;2.33;0.90;;;;;;;;;;5026932;28;20044;-64
2023/05/20 03:01:19;;;;;;;1.58;0.68;;;;;;;;;;5026074;28;20563;-64
2023/05/20 03:03:45;;;;;;;2.35;1.00;;;;;;;;;;5044821;28;20037;-65
2023/05/20 03:06:11;;;;;;;1.85;1.27;;;;;;;;;;5045034;28;20488;-65
2023/05/20 03:08:38;;;;;;;1.48;0.93;;;;;;;;;;5044397;28;20056;-65
2023/05/20 03:11:04;;;;;;;1.48;1.05;;;;;;;;;;5044265;28;20464;-64
2023/05/20 03:13:30;;;;;;;2.65;1.02;;;;;;;;;;5025103;28;20376;-64
2023/05/20 03:15:56;;;;;;;0.98;0.88;;;;;;;;;;5044231;28;20051;-64
2023/05/20 03:18:22;;;;;;;0.60;0.60;;;;;;;;;;5043836;28;20041;-64
2023/05/20 03:20:48;;;;;;;1.20;1.10;;;;;;;;;;5043391;28;20048;-64
2023/05/20 03:23:14;;;;;;;1.70;0.90;;;;;;;;;;5044675;28;20056;-64
2023/05/20 03:25:40;;;;;;;1.00;0.70;;;;;;;;;;5026253;28;20040;-64
2023/05/20 03:28:06;;;;;;;1.13;1.02;;;;;;;;;;5043046;28;20045;-64
2023/05/20 03:30:32;;;;;;;0.88;0.88;;;;;;;;;;5025547;28;20063;-64
2023/05/20 03:32:58;;;;;;;0.60;0.60;;;;;;;;;;5043666;28;20048;-64
2023/05/20 03:35:25;;;;;;;1.58;1.23;;;;;;;;;;5024156;28;20458;-64
2023/05/20 03:37:52;;;;;;;1.13;1.02;;;;;;;;;;5043604;28;20119;-64
2023/05/20 03:40:19;;;;;;;1.27;0.95;;;;;;;;;;5026048;28;20447;-64
2023/05/20 03:42:45;;;;;;;0.98;0.85;;;;;;;;;;5025207;28;20049;-64
2023/05/20 03:45:11;;;;;;;0.52;0.52;;;;;;;;;;5026137;28;20114;-64
2023/05/20 03:47:38;;;;;;;0.73;0.73;;;;;;;;;;5043092;28;20484;-64
2023/05/20 03:50:04;;;;;;;0.70;0.70;;;;;;;;;;5042227;28;20462;-64
2023/05/20 03:52:30;;;;;;;2.58;0.80;;;;;;;;;;5025222;28;20049;-64
2023/05/20 03:54:57;;;;;;;1.20;0.82;;;;;;;;;;5025576;28;20107;-64
2023/05/20 03:57:23;;;;;;;0.98;0.60;;;;;;;;;;5025358;28;20041;-64
2023/05/20 03:59:49;;;;;;;1.13;0.80;;;;;;;;;;5025331;28;20048;-64
2023/05/20 04:02:15;;;;;;;0.55;0.43;;;;;;;;;;5043238;28;20060;-64
2023/05/20 04:04:44;;;;;;;0.70;0.70;;;;;;;;;;5025549;28;20033;-64
2023/05/20 04:07:10;;;;;;;1.25;0.70;;;;;;;;;;5025795;28;20053;-64
2023/05/20 04:09:37;;;;;;;0.57;0.57;;;;;;;;;;5041649;28;20550;-64
2023/05/20 04:12:03;;;;;;;0.70;0.60;;;;;;;;;;5043649;28;20045;-63
2023/05/20 04:14:30;;;;;;;0.75;0.65;;;;;;;;;;5024408;28;20130;-64
2023/05/20 04:16:56;;;;;;;0.98;0.65;;;;;;;;;;5042819;28;20037;-64
2023/05/20 04:19:22;;;;;;;1.13;0.80;;;;;;;;;;5043455;28;20124;-64
2023/05/20 04:21:49;;;;;;;1.15;0.73;;;;;;;;;;5024929;28;20049;-64
2023/05/20 04:24:15;;;;;;;0.70;0.70;;;;;;;;;;5025790;28;20118;-64
2023/05/20 04:26:41;;;;;;;1.10;0.60;;;;;;;;;;5042631;28;20467;-64
2023/05/20 04:29:07;;;;;;;1.27;0.70;;;;;;;;;;5043062;28;20400;-64
2023/05/20 04:31:33;;;;;;;1.00;0.57;;;;;;;;;;5024409;28;20041;-64
2023/05/20 04:33:59;;;;;;;1.33;0.55;;;;;;;;;;5042983;28;20549;-64
2023/05/20 04:36:27;;;;;;;1.17;0.60;;;;;;;;;;5042997;28;20600;-64
2023/05/20 04:38:56;;;;;;;0.35;0.35;;;;;;;;;;5041051;28;20049;-64
2023/05/20 04:41:23;;;;;;;0.40;0.40;;;;;;;;;;5025315;28;20587;-64
2023/05/20 04:43:49;;;;;;;0.43;0.40;;;;;;;;;;5024809;28;20056;-64
2023/05/20 04:46:15;;;;;;;0.50;0.50;;;;;;;;;;5042207;28;20041;-64
2023/05/20 04:48:42;;;;;;;0.85;0.50;;;;;;;;;;5025267;28;20505;-64
2023/05/20 04:51:08;;;;;;;0.82;0.70;;;;;;;;;;5025028;28;20085;-64
2023/05/20 04:53:35;;;;;;;0.75;0.47;;;;;;;;;;5024006;28;20065;-64
2023/05/20 04:56:02;;;;;;;0.55;0.50;;;;;;;;;;5041307;28;20045;-64
2023/05/20 04:58:29;;;;;;;0.60;0.40;;;;;;;;;;5027764;28;20488;-64
2023/05/20 05:00:55;;;;;;;0.90;0.40;;;;;;;;;;5028687;28;20079;-64
2023/05/20 05:03:21;;;;;;;1.63;0.75;;;;;;;;;;5046883;28;20041;-64
2023/05/20 05:05:47;;;;;;;0.60;0.60;;;;;;;;;;5027561;28;20053;-64
2023/05/20 05:08:13;;;;;;;0.60;0.40;;;;;;;;;;5047490;28;20151;-64
2023/05/20 05:10:39;;;;;;;0.80;0.43;;;;;;;;;;5045975;28;20186;-64
2023/05/20 05:13:06;;;;;;;0.75;0.20;;;;;;;;;;5045434;28;20503;-64
2023/05/20 05:15:32;;;;;;;0.50;0.30;;;;;;;;;;5046192;28;20052;-64
2023/05/20 05:17:58;;;;;;;0.28;0.25;;;;;;;;;;5046371;28;20654;-64
2023/05/20 05:20:24;;;;;;;0.65;0.40;;;;;;;;;;5027734;28;20048;-64
2023/05/20 05:22:50;;;;;;;1.92;0.40;;;;;;;;;;5027955;28;20052;-64
2023/05/20 05:25:16;;;;;;;0.80;0.60;;;;;;;;;;5049337;28;20040;-64
2023/05/20 05:27:43;;;;;;;2.00;0.55;;;;;;;;;;5028026;28;20040;-64
2023/05/20 05:30:09;;;;;;;0.75;0.60;;;;;;;;;;5045937;28;20049;-64
2023/05/20 05:32:36;;;;;;;0.60;0.52;;;;;;;;;;5048346;28;20487;-64
2023/05/20 05:35:02;;;;;;;0.95;0.50;;;;;;;;;;5045231;28;20041;-64
2023/05/20 05:37:28;;;;;;;0.40;0.40;;;;;;;;;;5027942;28;20071;-64
2023/05/20 05:39:54;;;;;;;0.40;0.35;;;;;;;;;;5030897;28;20049;-64
2023/05/20 05:42:20;;;;;;;0.28;0.28;;;;;;;;;;5045532;28;20073;-64
2023/05/20 05:44:46;;;;;;;1.67;0.30;;;;;;;;;;5028384;28;20057;-64
2023/05/20 05:47:12;;;;;;;0.30;0.28;;;;;;;;;;5028828;28;20432;-64
2023/05/20 05:49:38;;;;;;;0.73;0.40;;;;;;;;;;5026556;28;20060;-64
2023/05/20 05:52:04;;;;;;;1.90;0.55;;;;;;;;;;5045367;28;20087;-64
2023/05/20 05:54:30;;;;;;;0.40;0.40;;;;;;;;;;5044880;28;20765;-64
2023/05/20 05:56:56;;;;;;;0.90;0.40;;;;;;;;;;5022056;28;20032;-64
2023/05/20 05:59:22;;;;;;;0.70;0.40;;;;;;;;;;5045501;28;20495;-64
2023/05/20 06:01:48;;;;;;;0.70;0.50;;;;;;;;;;5028973;28;20047;-64
2023/05/20 06:04:14;;;;;;;0.63;0.60;;;;;;;;;;5042504;28;20060;-65
2023/05/20 06:06:41;;;;;;;0.82;0.50;;;;;;;;;;5027569;28;20049;-63
2023/05/20 06:09:07;;;;;;;1.38;0.88;;;;;;;;;;5044696;28;20855;-64
2023/05/20 06:11:33;;;;;;;0.50;0.50;;;;;;;;;;5027989;28;20065;-63
2023/05/20 06:13:59;;;;;;;1.52;0.63;;;;;;;;;;5027260;28;20091;-63
2023/05/20 06:16:25;;;;;;;0.50;0.50;;;;;;;;;;5026471;28;20041;-63
2023/05/20 06:18:54;;;;;;;1.63;0.90;;;;;;;;;;5027083;28;20106;-64
2023/05/20 06:21:20;;;;;;;0.50;0.40;;;;;;;;;;5027897;28;20053;-64
2023/05/20 06:23:46;;;;;;;1.90;0.60;;;;;;;;;;5028307;28;20702;-64
2023/05/20 06:26:12;;;;;;;0.98;0.40;;;;;;;;;;5045840;28;20124;-64
2023/05/20 06:28:38;;;;;;;0.88;0.70;;;;;;;;;;5047292;28;20057;-64
2023/05/20 06:31:05;;;;;;;0.75;0.45;;;;;;;;;;5025830;28;20044;-64
2023/05/20 06:33:31;;;;;;;0.68;0.52;;;;;;;;;;5026198;28;20044;-64
2023/05/20 06:35:57;;;;;;;0.93;0.60;;;;;;;;;;5043762;28;20118;-64
2023/05/20 06:38:23;;;;;;;0.77;0.45;;;;;;;;;;5026021;28;20040;-64
2023/05/20 06:40:50;;;;;;;1.85;0.93;;;;;;;;;;5026199;28;20048;-64
2023/05/20 06:43:16;;;;;;;1.02;0.47;;;;;;;;;;5027055;28;20045;-64
2023/05/20 06:45:43;;;;;;;1.50;0.43;;;;;;;;;;5026418;28;20081;-64
2023/05/20 06:48:09;;;;;;;1.00;0.85;;;;;;;;;;5026275;28;20045;-65
2023/05/20 06:50:36;;;;;;;0.82;0.50;;;;;;;;;;5026246;28;20133;-64
2023/05/20 06:53:03;;;;;;;1.13;0.60;;;;;;;;;;5043879;28;20049;-64
2023/05/20 06:55:30;;;;;;;0.95;0.63;;;;;;;;;;5026332;28;20049;-64
2023/05/20 06:57:56;;;;;;;1.63;0.80;;;;;;;;;;5043977;28;20545;-64
2023/05/20 07:00:22;;;;;;;2.30;0.85;;;;;;;;;;5041347;28;20060;-64
2023/05/20 07:02:48;;;;;;;1.10;0.68;;;;;;;;;;5023734;28;20068;-64
2023/05/20 07:05:14;;;;;;;0.40;0.40;;;;;;;;;;5033306;28;20052;-64
2023/05/20 07:07:40;;;;;;;0.60;0.60;;;;;;;;;;5044440;28;20044;-64
2023/05/20 07:10:06;;;;;;;1.08;0.50;;;;;;;;;;5044208;28;20128;-64
2023/05/20 07:12:33;;;;;;;0.90;0.60;;;;;;;;;;5025769;28;20049;-65
2023/05/20 07:15:00;;;;;;;0.90;0.45;;;;;;;;;;5026259;28;20122;-64
2023/05/20 07:17:28;;;;;;;0.88;0.50;;;;;;;;;;5045378;28;20075;-64
2023/05/20 07:19:54;;;;;;;1.05;0.43;;;;;;;;;;5043661;28;20053;-64
2023/05/20 07:22:20;;;;;;;0.25;0.25;;;;;;;;;;5044061;28;20040;-65
2023/05/20 07:24:46;;;;;;;1.77;0.85;;;;;;;;;;5026183;28;20040;-64
2023/05/20 07:27:12;;;;;;;0.77;0.43;;;;;;;;;;5026650;28;20053;-64
2023/05/20 07:29:38;;;;;;;0.55;0.55;;;;;;;;;;5025958;28;20044;-64
2023/05/20 07:32:04;;;;;;;2.05;0.50;;;;;;;;;;5024499;28;20464;-64
2023/05/20 07:34:31;;;;;;;1.20;0.68;;;;;;;;;;5034791;28;20178;-64
2023/05/20 07:36:57;;;;;;;0.85;0.57;;;;;;;;;;5031994;28;20080;-64
2023/05/20 07:39:23;;;;;;;1.30;1.02;;;;;;;;;;5022591;28;20094;-64
2023/05/20 07:41:49;;;;;;;1.00;0.90;;;;;;;;;;5023865;28;20075;-64
2023/05/20 07:44:17;;;;;;;0.70;0.55;;;;;;;;;;5026959;28;20349;-64
2023/05/20 07:46:43;;;;;;;0.98;0.47;;;;;;;;;;5044356;28;20056;-64
2023/05/20 07:49:10;;;;;;;2.63;0.80;;;;;;;;;;5024861;28;20156;-65
2023/05/20 07:51:36;;;;;;;1.35;0.60;;;;;;;;;;5043195;28;20865;-65
2023/05/20 07:54:02;;;;;;;1.63;0.50;;;;;;;;;;5024216;28;20615;-65
2023/05/20 07:56:28;;;;;;;2.05;0.52;;;;;;;;;;5043688;28;20041;-65
2023/05/20 07:58:55;;;;;;;0.60;0.30;;;;;;;;;;5042526;28;20094;-65
2023/05/20 08:01:21;;;;;;;0.40;0.40;;;;;;;;;;5043389;28;20049;-65
2023/05/20 08:03:47;;;;;;;2.47;0.88;;;;;;;;;;5040973;28;20080;-65
2023/05/20 08:06:13;;;;;;;1.08;0.98;;;;;;;;;;5023363;28;20076;-66
2023/05/20 08:08:40;;;;;;;0.52;0.52;;;;;;;;;;5024358;28;20566;-64
2023/05/20 08:11:06;;;;;;;0.43;0.35;;;;;;;;;;5026369;28;20123;-62
2023/05/20 08:13:32;;;;;;;0.98;0.47;;;;;;;;;;5044485;28;20045;-64
2023/05/20 08:15:58;;;;;;;0.70;0.63;;;;;;;;;;5025561;28;20781;-67
2023/05/20 08:18:26;;;;;;;1.10;0.73;;;;;;;;;;5044155;28;20544;-65
2023/05/20 08:20:52;;;;;;;1.27;0.60;;;;;;;;;;5044305;28;20053;-66
2023/05/20 08:23:18;;;;;;;2.55;0.90;;;;;;;;;;5043601;28;20073;-66
2023/05/20 08:25:45;;;;;;;1.80;0.93;;;;;;;;;;5046118;28;20468;-66
2023/05/20 08:28:11;;;;;;;2.05;0.70;;;;;;;;;;5044190;28;20128;-66
2023/05/20 08:30:37;;;;;;;1.20;0.57;;;;;;;;;;5028373;28;20617;-66
2023/05/20 08:33:03;;;;;;;0.82;0.75;;;;;;;;;;5029307;28;20072;-66
2023/05/20 08:35:29;;;;;;;1.02;0.60;;;;;;;;;;5029769;28;20048;-66
2023/05/20 08:37:56;;;;;;;1.17;0.60;;;;;;;;;;5047026;28;20040;-66
2023/05/20 08:40:22;;;;;;;0.85;0.60;;;;;;;;;;5033145;28;20077;-66
2023/05/20 08:42:53;;;;;;;1.00;0.60;;;;;;;;;;5043099;28;20049;-66
2023/05/20 08:45:25;;;;;;;0.68;0.47;;;;;;;;;;5046354;28;20496;-66
2023/05/20 08:47:51;;;;;;;;;;;;;;;;;;5030254;28;20056;-66
2023/05/20 08:50:17;;;;;;;0.90;0.63;;;;;;;;;;5046435;28;19921;-66
2023/05/20 08:52:45;;;;;;;0.85;0.60;;;;;;;;;;5046483;28;20048;-66
2023/05/20 08:55:14;;;;;;;1.23;0.52;;;;;;;;;;5047136;28;20059;-66
2023/05/20 08:57:40;;;;;;;0.90;0.40;;;;;;;;;;5046118;28;20049;-63
2023/05/20 09:00:12;;;;;;;1.40;0.77;;;;;;;;;;5046046;28;20653;-65
2023/05/20 09:02:38;;;;;;;1.10;0.70;;;;;;;;;;5046645;28;20053;-65
2023/05/20 09:05:05;;;;;;;1.08;0.70;;;;;;;;;;5046601;28;20511;-65
2023/05/20 09:07:31;;;;;;;1.85;0.88;;;;;;;;;;5047720;28;20056;-65
2023/05/20 09:09:57;;;;;;;1.00;0.68;;;;;;;;;;5029506;28;20044;-65
2023/05/20 09:12:23;;;;;;;1.08;0.80;;;;;;;;;;5047123;28;20087;-65
2023/05/20 09:14:49;;;;;;;0.73;0.57;;;;;;;;;;5047337;28;20081;-65
2023/05/20 09:17:17;;;;;;;0.95;0.55;;;;;;;;;;5030151;28;20168;-65
2023/05/20 09:19:43;;;;;;;2.03;0.80;;;;;;;;;;5029772;28;20056;-65
2023/05/20 09:22:09;;;;;;;1.75;0.68;;;;;;;;;;5047211;28;20044;-65
2023/05/20 09:24:35;;;;;;;1.38;0.65;;;;;;;;;;5029308;28;20193;-65
2023/05/20 09:27:01;;;;;;;0.50;0.50;;;;;;;;;;5028363;28;20088;-65
2023/05/20 09:29:27;;;;;;;0.82;0.50;;;;;;;;;;5047076;28;20048;-65
2023/05/20 09:31:55;;;;;;;0.88;0.50;;;;;;;;;;5047141;28;20041;-65
2023/05/20 09:34:21;;;;;;;1.80;1.00;;;;;;;;;;5028438;28;20623;-65
2023/05/20 09:36:49;;;;;;;2.65;0.95;;;;;;;;;;5046851;28;20041;-65
2023/05/20 09:39:16;;;;;;;1.00;0.75;;;;;;;;;;5029805;28;20048;-65
2023/05/20 09:41:50;;;;;;;0.73;0.68;;;;;;;;;;5045847;28;20877;-65
2023/05/20 09:44:17;;;;;;;1.27;0.60;;;;;;;;;;5028679;28;20507;-65
2023/05/20 09:46:44;;;;;;;1.58;0.82;;;;;;;;;;5025558;28;20037;-65
2023/05/20 09:49:11;;;;;;;2.40;0.77;;;;;;;;;;5032883;28;20062;-65
2023/05/20 09:51:37;;;;;;;0.98;0.82;;;;;;;;;;5044391;28;20099;-65
2023/05/20 09:54:05;;;;;;;1.20;0.80;;;;;;;;;;5044669;28;20093;-65
2023/05/20 09:56:33;;;;;;;2.03;0.70;;;;;;;;;;5051290;28;20094;-65
2023/05/20 09:58:59;;;;;;;1.02;0.70;;;;;;;;;;5046188;28;20117;-65
2023/05/20 10:01:25;;;;;;;2.08;0.98;;;;;;;;;;5046020;28;20127;-65
2023/05/20 10:03:52;;;;;;;1.67;0.80;;;;;;;;;;5046344;28;20056;-64
2023/05/20 10:06:44;;;;;;;3.35;1.00;;;;;;;;;;5046719;28;20429;-65
2023/05/20 10:09:11;;;;;;;;;;;;;;;;;;5022987;28;20570;-65
2023/05/20 10:11:48;;;;;;;1.60;0.75;;;;;;;;;;5046538;28;19924;-65
2023/05/20 10:14:33;;;;;;;1.40;0.98;;;;;;;;;;5046990;28;20128;-65
2023/05/20 10:17:22;;;;;;;2.58;0.95;;;;;;;;;;5023926;28;20068;-64
2023/05/20 10:19:49;;;;;;;2.95;0.80;;;;;;;;;;5025467;28;20543;-64
2023/05/20 10:22:26;;;;;;;2.17;1.00;;;;;;;;;;5015141;28;20054;-65
2023/05/20 10:24:57;;;;;;;2.65;1.42;;;;;;;;;;5041811;28;20084;-64
2023/05/20 10:27:23;;;;;;;1.58;1.00;;;;;;;;;;5017899;28;20056;-64
2023/05/20 10:29:53;;;;;;;2.13;0.98;;;;;;;;;;5017480;28;20430;-64
2023/05/20 10:32:26;;;;;;;2.13;1.17;;;;;;;;;;5028116;28;20517;-64
2023/05/20 10:34:52;;;;;;;1.05;0.82;;;;;;;;;;5045212;28;20115;-64
2023/05/20 10:37:30;;;;;;;1.95;0.95;;;;;;;;;;5040304;28;20047;-64
2023/05/20 10:40:10;;;;;;;1.15;0.90;;;;;;;;;;5041351;28;20053;-64
2023/05/20 10:42:36;;;;;;;1.73;0.88;;;;;;;;;;5020958;28;20430;-64
2023/05/20 10:45:02;;;;;;;4.13;1.33;;;;;;;;;;5034382;28;20480;-64
2023/05/20 10:47:29;;;;;;;1.45;0.95;;;;;;;;;;5024704;28;20148;-65
2023/05/20 10:49:55;;;;;;;2.60;1.08;;;;;;;;;;5027003;28;20799;-64
2023/05/20 10:52:21;;;;;;;1.80;1.02;;;;;;;;;;5024989;28;20055;-65
2023/05/20 10:54:54;;;;;;;2.20;1.25;;;;;;;;;;5036684;28;20041;-65
2023/05/20 10:57:20;;;;;;;2.53;1.20;;;;;;;;;;5027206;28;20403;-65
2023/05/20 10:59:47;;;;;;;1.75;1.25;;;;;;;;;;5045594;28;20103;-64
2023/05/20 11:02:15;;;;;;;1.88;1.08;;;;;;;;;;5028023;28;20128;-64
2023/05/20 11:04:44;;;;;;;5.47;1.77;;;;;;;;;;5026990;28;20040;-65
2023/05/20 11:07:10;;;;;;;3.55;1.55;;;;;;;;;;5027219;28;20041;-64
2023/05/20 11:09:36;;;;;;;3.22;1.40;;;;;;;;;;5045307;28;20055;-64
2023/05/20 11:12:03;;;;;;;2.70;1.30;;;;;;;;;;5026761;28;20049;-64
2023/05/20 11:14:29;;;;;;;3.60;1.35;;;;;;;;;;5037341;28;20049;-64
2023/05/20 11:16:58;;;;;;;2.35;1.35;;;;;;;;;;5036344;28;20037;-65
2023/05/20 11:19:25;;;;;;;3.38;1.27;;;;;;;;;;5050066;28;20045;-64
2023/05/20 11:21:51;;;;;;;3.90;1.58;;;;;;;;;;5044477;28;20592;-64
2023/05/20 11:24:25;;;;;;;2.78;1.23;;;;;;;;;;5045317;28;20071;-65
2023/05/20 11:26:51;;;;;;;2.00;1.05;;;;;;;;;;5026462;28;20537;-65
2023/05/20 11:29:18;;;;;;;2.58;1.67;;;;;;;;;;5027083;28;20049;-65
2023/05/20 11:31:45;;;;;;;2.45;1.27;;;;;;;;;;5045627;28;20041;-65
2023/05/20 11:34:11;;;;;;;2.35;1.40;;;;;;;;;;5044401;28;20060;-64
2023/05/20 11:36:43;;;;;;;4.47;1.50;;;;;;;;;;5026773;28;20041;-64
2023/05/20 11:39:10;;;;;;;3.15;1.25;;;;;;;;;;5026940;28;20369;-64
2023/05/20 11:41:37;;;;;;;2.15;1.50;;;;;;;;;;5026165;28;20044;-64
2023/05/20 11:44:04;;;;;;;2.30;1.30;;;;;;;;;;5043649;28;20056;-65
2023/05/20 11:46:30;;;;;;;5.10;1.30;;;;;;;;;;5010263;28;20053;-65
2023/05/20 11:48:56;;;;;;;2.67;1.42;;;;;;;;;;5024661;28;20059;-65
2023/05/20 11:51:24;;;;;;;2.58;1.13;;;;;;;;;;5035645;28;20072;-65
2023/05/20 11:53:50;;;;;;;4.00;1.75;;;;;;;;;;5006170;28;20103;-65
2023/05/20 11:56:16;;;;;;;2.80;1.58;;;;;;;;;;5025595;28;20435;-65
2023/05/20 11:58:44;;;;;;;1.55;1.13;;;;;;;;;;5007782;28;20049;-65
2023/05/20 12:01:10;;;;;;;4.50;1.50;;;;;;;;;;5024085;28;20144;-65
2023/05/20 12:03:36;;;;;;;1.27;1.17;;;;;;;;;;5006988;28;20425;-65
2023/05/20 12:06:02;;;;;;;1.85;1.33;;;;;;;;;;5022076;28;20476;-65
2023/05/20 12:08:28;;;;;;;3.83;1.27;;;;;;;;;;5029040;28;20148;-65
2023/05/20 12:10:55;;;;;;;3.55;1.27;;;;;;;;;;5018558;28;20804;-65
2023/05/20 12:13:22;;;;;;;3.00;1.58;;;;;;;;;;5012500;28;20055;-65
2023/05/20 12:15:48;;;;;;;1.70;1.42;;;;;;;;;;5018698;28;20495;-65
2023/05/20 12:18:14;;;;;;;3.00;1.20;;;;;;;;;;5015250;28;20500;-65
2023/05/20 12:20:40;;;;;;;2.03;1.60;;;;;;;;;;5039092;28;20124;-65
2023/05/20 12:23:06;;;;;;;2.53;1.40;;;;;;;;;;5036296;28;20052;-65
2023/05/20 12:25:32;;;;;;;1.83;1.45;;;;;;;;;;5042640;28;20075;-65
2023/05/20 12:27:59;;;;;;;2.10;1.65;;;;;;;;;;5018394;28;20098;-65
2023/05/20 12:30:25;;;;;;;2.88;1.50;;;;;;;;;;5034147;28;20947;-65
2023/05/20 12:32:51;;;;;;;2.40;1.30;;;;;;;;;;5017061;28;20582;-65
2023/05/20 12:35:17;;;;;;;3.00;1.60;;;;;;;;;;5042303;28;20103;-65
2023/05/20 12:37:44;;;;;;;1.40;1.30;;;;;;;;;;5042364;28;20624;-65
2023/05/20 12:40:11;;;;;;;1.77;1.42;;;;;;;;;;5036904;28;20499;-65
2023/05/20 12:42:41;;;;;;;2.53;1.58;;;;;;;;;;5019813;28;20061;-65
2023/05/20 12:45:08;;;;;;;3.03;1.70;;;;;;;;;;5037100;28;20509;-65
2023/05/20 12:47:34;;;;;;;3.78;1.65;;;;;;;;;;5046376;28;20049;-64
2023/05/20 12:50:01;;;;;;;3.42;1.75;;;;;;;;;;5021816;28;20123;-65
2023/05/20 12:52:27;;;;;;;2.70;1.60;;;;;;;;;;5043131;28;20080;-65
2023/05/20 12:54:54;;;;;;;3.65;1.60;;;;;;;;;;5042622;28;20467;-65
2023/05/20 12:57:20;;;;;;;3.22;1.45;;;;;;;;;;5042351;28;20503;-65
2023/05/20 12:59:46;;;;;;;4.00;1.75;;;;;;;;;;5040815;28;20057;-64
2023/05/20 13:02:12;;;;;;;3.03;1.83;;;;;;;;;;5019344;28;20055;-65
2023/05/20 13:04:38;;;;;;;3.40;1.80;;;;;;;;;;5024325;28;20041;-65
2023/05/20 13:07:05;;;;;;;2.80;1.70;;;;;;;;;;5025327;28;20061;-65
2023/05/20 13:09:32;;;;;;;3.17;1.73;;;;;;;;;;5041557;28;20080;-65
2023/05/20 13:11:58;;;;;;;3.63;1.80;;;;;;;;;;5029184;28;20052;-65
2023/05/20 13:14:24;;;;;;;2.83;1.80;;;;;;;;;;5027373;28;20114;-64
2023/05/20 13:16:54;;;;;;;2.33;1.67;;;;;;;;;;5013153;28;20488;-65
2023/05/20 13:19:23;;;;;;;3.25;2.20;;;;;;;;;;5033884;28;20131;-64
2023/05/20 13:21:49;;;;;;;2.30;1.88;;;;;;;;;;5018318;28;20069;-64
2023/05/20 13:24:16;;;;;;;3.25;1.80;;;;;;;;;;5021737;28;20053;-64
2023/05/20 13:26:42;;;;;;;2.22;1.40;;;;;;;;;;5028164;28;20037;-64
2023/05/20 13:29:09;;;;;;;1.40;1.30;;;;;;;;;;5039493;28;20163;-64
2023/05/20 13:31:35;;;;;;;2.20;1.40;;;;;;;;;;5044982;28;20049;-64
2023/05/20 13:34:01;;;;;;;4.35;1.90;;;;;;;;;;5017157;28;20072;-64
2023/05/20 13:36:27;;;;;;;2.83;1.60;;;;;;;;;;5040459;28;20491;-64
2023/05/20 13:38:53;;;;;;;2.58;1.77;;;;;;;;;;5017884;28;20052;-64
2023/05/20 13:41:19;;;;;;;2.55;1.42;;;;;;;;;;5015766;28;20052;-64
2023/05/20 13:43:45;;;;;;;2.35;1.50;;;;;;;;;;5036472;28;20064;-64
2023/05/20 13:46:12;;;;;;;4.88;1.60;;;;;;;;;;5023640;28;20410;-65
2023/05/20 13:48:38;;;;;;;4.88;1.77;;;;;;;;;;5036877;28;20053;-65
2023/05/20 13:51:04;;;;;;;3.70;2.22;;;;;;;;;;5040864;28;20095;-64
2023/05/20 13:53:30;;;;;;;5.50;1.70;;;;;;;;;;5041773;28;20044;-64
2023/05/20 13:55:56;;;;;;;3.08;1.95;;;;;;;;;;5027745;28;20080;-64
2023/05/20 13:58:22;;;;;;;1.63;1.42;;;;;;;;;;5046215;28;20041;-64
2023/05/20 14:00:48;;;;;;;4.22;1.77;;;;;;;;;;5042506;28;20408;-65
2023/05/20 14:03:14;;;;;;;2.00;1.52;;;;;;;;;;5045172;28;20037;-64
2023/05/20 14:05:41;;;;;;;2.97;1.60;;;;;;;;;;5036689;28;20099;-64
2023/05/20 14:08:07;;;;;;;2.42;1.75;;;;;;;;;;5014198;28;20434;-65
2023/05/20 14:10:33;;;;;;;2.00;1.50;;;;;;;;;;5024940;28;20446;-64
2023/05/20 14:13:01;;;;;;;2.50;1.88;;;;;;;;;;5024917;28;20415;-65
2023/05/20 14:15:29;;;;;;;2.88;1.88;;;;;;;;;;5016108;28;20052;-64
2023/05/20 14:17:56;;;;;;;2.22;1.23;;;;;;;;;;5041231;28;20049;-65
2023/05/20 14:20:23;;;;;;;5.88;2.28;;;;;;;;;;5025706;28;20059;-65
2023/05/20 14:22:49;;;;;;;3.50;1.70;;;;;;;;;;5025172;28;20103;-64
2023/05/20 14:25:15;;;;;;;1.40;1.30;;;;;;;;;;5037289;28;20049;-65
2023/05/20 14:27:41;;;;;;;1.88;1.35;;;;;;;;;;5042091;28;20132;-64
2023/05/20 14:30:07;;;;;;;2.40;2.10;;;;;;;;;;5021558;28;20124;-66
2023/05/20 14:32:33;;;;;;;2.20;1.80;;;;;;;;;;5037138;28;20507;-64
2023/05/20 14:34:59;;;;;;;3.63;1.60;;;;;;;;;;5036800;28;20123;-64
2023/05/20 14:37:26;;;;;;;2.67;1.73;;;;;;;;;;5039739;28;20049;-64
2023/05/20 14:39:53;;;;;;;2.15;1.35;;;;;;;;;;5040081;28;20041;-64